createdAt,value
2023-02-27T00:00:21.642Z,36.34
2023-02-27T00:00:43.304Z,36.19
2023-02-27T00:01:06.375Z,36.12
2023-02-27T00:01:29.178Z,35.93
2023-02-27T00:01:50.789Z,36.21
2023-02-27T00:02:12.386Z,36.20
2023-02-27T00:02:37.078Z,36.13
2023-02-27T00:02:59.784Z,36.07
2023-02-27T00:03:21.462Z,36.51
2023-02-27T00:03:43.114Z,36.28
2023-02-27T00:04:06.067Z,36.38
2023-02-27T00:04:29.152Z,36.61
2023-02-27T00:04:50.777Z,36.14
2023-02-27T00:05:12.865Z,36.42
2023-02-27T00:05:34.469Z,36.15
2023-02-27T00:05:57.867Z,36.08
2023-02-27T00:06:19.462Z,35.98
2023-02-27T00:06:41.177Z,35.99
2023-02-27T00:07:04.014Z,36.22
2023-02-27T00:07:28.662Z,36.03
2023-02-27T00:07:50.985Z,36.09
2023-02-27T00:08:15.529Z,36.11
2023-02-27T00:08:38.170Z,35.92
2023-02-27T00:09:00.232Z,36.05
2023-02-27T00:09:21.937Z,35.80
2023-02-27T00:09:43.778Z,35.83
2023-02-27T00:10:07.728Z,35.96
2023-02-27T00:10:29.312Z,36.04
2023-02-27T00:10:50.936Z,36.09
2023-02-27T00:11:12.787Z,36.11
2023-02-27T00:11:35.620Z,35.97
2023-02-27T00:11:57.286Z,35.90
2023-02-27T00:12:19.156Z,35.99
2023-02-27T00:12:41.229Z,35.90
2023-02-27T00:13:03.869Z,36.02
2023-02-27T00:13:25.756Z,35.92
2023-02-27T00:13:49.160Z,35.91
2023-02-27T00:14:10.924Z,36.04
2023-02-27T00:14:33.568Z,36.16
2023-02-27T00:14:55.134Z,35.95
2023-02-27T00:15:19.800Z,36.08
2023-02-27T00:15:41.392Z,36.26
2023-02-27T00:16:04.027Z,36.43
2023-02-27T00:16:25.670Z,36.17
2023-02-27T00:16:47.295Z,36.20
2023-02-27T00:17:08.900Z,36.39
2023-02-27T00:17:31.541Z,36.40
2023-02-27T00:17:56.223Z,36.29
2023-02-27T00:18:18.056Z,36.42
2023-02-27T00:18:39.702Z,36.32
2023-02-27T00:19:04.670Z,36.47
2023-02-27T00:19:26.893Z,36.12
2023-02-27T00:19:48.585Z,36.46
2023-02-27T00:20:13.729Z,36.60
2023-02-27T00:20:38.034Z,36.25
2023-02-27T00:20:59.720Z,36.39
2023-02-27T00:21:21.311Z,36.59
2023-02-27T00:21:44.559Z,36.18
2023-02-27T00:22:07.067Z,36.43
2023-02-27T00:22:28.697Z,36.51
2023-02-27T00:22:50.404Z,36.23
2023-02-27T00:23:12.008Z,36.40
2023-02-27T00:23:35.197Z,36.25
2023-02-27T00:23:57.024Z,36.40
2023-02-27T00:24:18.953Z,36.37
2023-02-27T00:45:08.996Z,37.74
2023-02-27T00:46:22.995Z,37.60
2023-02-27T00:46:47.107Z,37.71
2023-02-27T00:47:08.718Z,38.05
2023-02-27T00:47:30.407Z,38.07
2023-02-27T00:47:52.052Z,37.95
2023-02-27T00:48:15.351Z,37.70
2023-02-27T00:48:37.381Z,38.01
2023-02-27T00:48:59.022Z,37.98
2023-02-27T00:49:20.816Z,37.92
2023-02-27T00:49:43.380Z,37.98
2023-02-27T00:50:05.908Z,37.86
2023-02-27T00:50:27.641Z,37.84
2023-02-27T00:50:50.689Z,37.70
2023-02-27T00:51:13.393Z,37.61
2023-02-27T00:51:35.264Z,37.41
2023-02-27T00:51:58.093Z,37.70
2023-02-27T00:52:19.717Z,37.74
2023-02-27T00:52:42.400Z,37.42
2023-02-27T00:53:04.027Z,37.63
2023-02-27T00:53:26.721Z,37.42
2023-02-27T00:53:48.845Z,37.58
2023-02-27T00:54:11.450Z,37.29
2023-02-27T00:54:32.978Z,37.62
2023-02-27T00:54:55.464Z,37.28
2023-02-27T00:55:17.218Z,37.17
2023-02-27T00:55:39.802Z,37.31
2023-02-27T00:56:01.418Z,37.39
2023-02-27T00:56:23.117Z,37.24
2023-02-27T00:56:45.350Z,37.52
2023-02-27T00:57:09.235Z,37.57
2023-02-27T00:57:31.032Z,37.45
2023-02-27T00:57:52.950Z,37.24
2023-02-27T00:58:15.776Z,37.07
2023-02-27T00:58:37.665Z,37.04
2023-02-27T00:58:59.318Z,37.41
2023-02-27T00:59:21.593Z,37.15
2023-02-27T00:59:44.147Z,37.23
2023-02-27T01:00:10.029Z,36.92
2023-02-27T01:00:32.085Z,36.91
2023-02-27T01:00:55.838Z,37.15
2023-02-27T01:01:18.845Z,37.21
2023-02-27T01:01:40.700Z,36.98
2023-02-27T01:02:02.584Z,37.20
2023-02-27T01:02:25.813Z,37.14
2023-02-27T01:02:50.178Z,37.10
2023-02-27T01:03:11.921Z,37.11
2023-02-27T01:03:33.719Z,37.25
2023-02-27T01:03:56.337Z,37.20
2023-02-27T01:04:18.007Z,36.92
2023-02-27T01:04:39.872Z,36.88
2023-02-27T01:05:02.461Z,36.89
2023-02-27T01:05:26.497Z,36.92
2023-02-27T01:05:48.144Z,37.08
2023-02-27T01:06:09.776Z,37.05
2023-02-27T01:06:31.675Z,37.04
2023-02-27T01:06:53.518Z,36.98
2023-02-27T01:07:16.146Z,36.75
2023-02-27T01:07:37.807Z,36.86
2023-02-27T01:07:59.553Z,36.89
2023-02-27T01:08:21.269Z,36.86
2023-02-27T01:08:43.915Z,37.00
2023-02-27T01:09:05.861Z,37.11
2023-02-27T01:09:29.043Z,37.17
2023-02-27T01:09:50.625Z,37.33
2023-02-27T01:10:16.091Z,37.17
2023-02-27T01:10:38.097Z,37.21
2023-02-27T01:11:01.601Z,37.09
2023-02-27T01:11:27.149Z,37.14
2023-02-27T01:11:50.843Z,37.07
2023-02-27T01:12:12.589Z,37.07
2023-02-27T01:12:34.235Z,37.21
2023-02-27T01:12:55.910Z,37.09
2023-02-27T01:13:18.489Z,36.97
2023-02-27T01:13:40.145Z,36.76
2023-02-27T01:33:00.860Z,37.15
2023-02-27T01:33:51.355Z,37.11
2023-02-27T01:34:39.242Z,37.23
2023-02-27T01:35:01.071Z,37.18
2023-02-27T01:35:22.820Z,37.50
2023-02-27T01:35:44.557Z,37.13
2023-02-27T01:36:08.916Z,37.42
2023-02-27T01:36:30.541Z,37.33
2023-02-27T01:37:34.490Z,37.25
2023-02-27T01:37:57.110Z,37.43
2023-02-27T01:38:18.749Z,37.57
2023-02-27T01:38:40.432Z,37.59
2023-02-27T01:39:02.151Z,37.42
2023-02-27T01:39:26.141Z,37.50
2023-02-27T01:39:47.748Z,37.51
2023-02-27T01:40:10.461Z,37.31
2023-02-27T01:40:36.036Z,37.10
2023-02-27T01:40:57.689Z,37.17
2023-02-27T01:41:20.291Z,37.10
2023-02-27T01:41:41.893Z,36.85
2023-02-27T01:42:04.011Z,37.01
2023-02-27T01:42:27.879Z,36.89
2023-02-27T01:42:52.373Z,37.00
2023-02-27T01:43:16.362Z,37.23
2023-02-27T01:43:54.127Z,37.23
2023-02-27T01:44:15.927Z,37.04
2023-02-27T01:45:32.351Z,37.23
2023-02-27T01:45:54.257Z,37.12
2023-02-27T01:46:15.899Z,36.85
2023-02-27T01:46:40.096Z,36.90
2023-02-27T01:47:02.677Z,37.19
2023-02-27T01:47:24.260Z,37.22
2023-02-27T01:47:48.464Z,37.17
2023-02-27T01:48:18.295Z,37.13
2023-02-27T01:48:41.018Z,37.01
2023-02-27T01:49:07.988Z,37.04
2023-02-27T01:49:33.588Z,37.50
2023-02-27T01:49:55.781Z,37.51
2023-02-27T01:50:19.285Z,37.28
2023-02-27T01:50:47.659Z,37.33
2023-02-27T01:51:14.328Z,37.47
2023-02-27T01:51:40.174Z,37.47
2023-02-27T01:52:07.053Z,37.32
2023-02-27T01:52:31.186Z,37.53
2023-02-27T01:52:56.155Z,37.30
2023-02-27T01:53:19.511Z,37.33
2023-02-27T01:53:45.154Z,37.36
2023-02-27T01:54:09.908Z,36.99
2023-02-27T01:54:35.032Z,37.44
2023-02-27T01:54:59.281Z,37.64
2023-02-27T01:55:22.966Z,37.21
2023-02-27T01:55:47.700Z,37.43
2023-02-27T01:56:17.890Z,37.33
2023-02-27T01:56:41.494Z,37.05
2023-02-27T01:57:06.621Z,37.39
2023-02-27T01:57:28.368Z,37.28
2023-02-27T01:57:51.395Z,37.49
2023-02-27T01:58:14.854Z,37.24
2023-02-27T01:58:38.547Z,37.44
2023-02-27T01:59:03.435Z,37.30
2023-02-27T01:59:25.597Z,37.03
2023-02-27T01:59:47.250Z,37.11
2023-02-27T02:00:10.503Z,37.12
2023-02-27T02:00:36.060Z,37.38
2023-02-27T02:00:57.714Z,37.47
2023-02-27T02:01:20.466Z,37.27
2023-02-27T02:01:43.455Z,37.35
2023-02-27T02:02:09.566Z,37.38
2023-02-27T02:02:37.146Z,37.08
2023-02-27T02:03:07.341Z,36.95
2023-02-27T02:20:26.940Z,38.01
2023-02-27T02:21:31.847Z,37.92
2023-02-27T02:22:25.168Z,38.36
2023-02-27T02:23:21.972Z,38.30
2023-02-27T02:24:19.843Z,38.27
2023-02-27T02:25:37.591Z,38.66
2023-02-27T02:26:24.696Z,38.50
2023-02-27T02:27:03.911Z,38.24
2023-02-27T02:27:39.643Z,38.18
2023-02-27T02:28:13.540Z,38.06
2023-02-27T02:29:02.513Z,37.96
2023-02-27T02:30:13.700Z,37.79
2023-02-27T02:31:04.776Z,37.87
2023-02-27T02:31:56.324Z,37.91
2023-02-27T02:32:48.819Z,37.78
2023-02-27T02:33:39.506Z,38.07
2023-02-27T02:34:25.634Z,37.93
2023-02-27T02:35:27.922Z,37.63
2023-02-27T02:36:35.648Z,37.62
2023-02-27T02:37:23.416Z,37.45
2023-02-27T02:38:08.596Z,37.55
2023-02-27T02:38:48.944Z,37.60
2023-02-27T02:39:25.830Z,37.83
2023-02-27T02:40:05.818Z,37.99
2023-02-27T02:40:35.912Z,37.84
2023-02-27T02:41:08.257Z,37.78
2023-02-27T02:41:42.618Z,37.75
2023-02-27T02:42:10.927Z,37.41
2023-02-27T02:42:39.648Z,37.82
2023-02-27T02:43:08.466Z,37.77
2023-02-27T02:43:40.903Z,37.57
2023-02-27T02:44:09.206Z,37.62
2023-02-27T02:44:40.728Z,37.93
2023-02-27T02:45:13.807Z,37.92
2023-02-27T02:45:44.872Z,37.77
2023-02-27T02:46:13.469Z,37.63
2023-02-27T02:46:43.990Z,37.65
2023-02-27T02:47:13.401Z,38.01
2023-02-27T02:47:43.372Z,37.94
2023-02-27T02:48:12.082Z,37.99
2023-02-27T02:48:44.207Z,38.04
2023-02-27T02:49:15.278Z,37.88
2023-02-27T02:49:45.688Z,38.10
2023-02-27T02:50:13.546Z,37.77
2023-02-27T02:50:44.020Z,37.73
2023-02-27T03:09:54.426Z,38.90
2023-02-27T03:10:39.795Z,38.87
2023-02-27T03:11:03.731Z,38.92
2023-02-27T03:11:30.688Z,39.06
2023-02-27T03:11:57.177Z,39.00
2023-02-27T03:12:22.505Z,38.92
2023-02-27T03:12:49.716Z,38.96
2023-02-27T03:13:18.836Z,39.08
2023-02-27T03:13:47.841Z,38.85
2023-02-27T03:14:13.402Z,39.06
2023-02-27T03:14:40.761Z,39.03
2023-02-27T03:15:07.241Z,38.66
2023-02-27T03:15:33.603Z,38.71
2023-02-27T03:16:02.213Z,38.54
2023-02-27T03:16:29.578Z,38.66
2023-02-27T03:16:55.924Z,38.21
2023-02-27T03:17:24.004Z,38.22
2023-02-27T03:17:49.509Z,38.39
2023-02-27T03:18:20.621Z,38.29
2023-02-27T03:18:49.304Z,38.48
2023-02-27T03:19:13.898Z,38.40
2023-02-27T03:19:42.484Z,38.30
2023-02-27T03:20:08.977Z,38.38
2023-02-27T03:20:34.017Z,38.10
2023-02-27T03:20:59.732Z,38.31
2023-02-27T03:21:28.611Z,38.60
2023-02-27T03:21:55.417Z,38.72
2023-02-27T03:22:20.561Z,38.29
2023-02-27T03:22:47.617Z,38.71
2023-02-27T03:23:14.048Z,38.61
2023-02-27T03:23:42.739Z,38.63
2023-02-27T03:24:10.311Z,38.22
2023-02-27T03:24:39.828Z,38.55
2023-02-27T03:25:06.334Z,38.58
2023-02-27T03:25:30.346Z,38.49
2023-02-27T03:25:53.834Z,38.87
2023-02-27T03:26:19.986Z,38.73
2023-02-27T03:26:45.567Z,38.42
2023-02-27T03:27:09.175Z,38.56
2023-02-27T03:27:35.636Z,38.33
2023-02-27T03:28:02.138Z,38.43
2023-02-27T03:28:28.993Z,38.57
2023-02-27T03:29:00.850Z,38.42
2023-02-27T03:29:28.320Z,38.41
2023-02-27T03:29:57.670Z,38.46
2023-02-27T03:30:26.311Z,38.38
2023-02-27T03:30:53.502Z,38.58
2023-02-27T03:31:22.579Z,38.71
2023-02-27T03:31:49.908Z,38.58
2023-02-27T03:32:16.432Z,38.61
2023-02-27T03:32:43.150Z,38.63
2023-02-27T03:33:11.816Z,38.57
2023-02-27T03:33:39.785Z,38.64
2023-02-27T03:34:09.090Z,38.71
2023-02-27T03:34:34.943Z,38.68
2023-02-27T03:35:00.267Z,39.18
2023-02-27T03:35:25.515Z,39.02
2023-02-27T03:35:51.477Z,39.06
2023-02-27T03:36:20.575Z,38.67
2023-02-27T03:36:50.981Z,38.81
2023-02-27T03:37:22.936Z,38.74
2023-02-27T03:37:54.668Z,38.51
2023-02-27T03:38:24.956Z,38.48
2023-02-27T03:38:51.588Z,39.07
2023-02-27T03:39:24.198Z,38.79
2023-02-27T03:39:48.972Z,38.87
2023-02-27T03:40:25.026Z,39.24
2023-02-27T03:40:52.708Z,38.72
2023-02-27T03:41:28.393Z,38.82
2023-02-27T03:42:11.764Z,38.54
2023-02-27T03:43:05.731Z,39.01
2023-02-27T03:43:52.748Z,39.05
2023-02-27T03:44:25.805Z,39.31
2023-02-27T03:44:55.872Z,38.94
2023-02-27T03:45:26.586Z,39.06
2023-02-27T03:45:56.740Z,39.34
2023-02-27T03:46:22.222Z,39.48
2023-02-27T03:46:46.926Z,39.29
2023-02-27T03:47:09.270Z,39.18
2023-02-27T03:47:31.924Z,39.36
2023-02-27T03:47:53.964Z,39.32
2023-02-27T03:48:15.801Z,39.05
2023-02-27T03:48:38.609Z,39.51
2023-02-27T03:49:00.255Z,39.38
2023-02-27T03:49:21.892Z,39.67
2023-02-27T03:49:44.487Z,39.47
2023-02-27T03:50:07.985Z,39.39
2023-02-27T03:50:29.871Z,39.25
2023-02-27T03:50:51.636Z,39.14
2023-02-27T03:51:15.208Z,39.17
2023-02-27T03:51:38.054Z,38.95
2023-02-27T03:51:59.695Z,38.97
2023-02-27T03:52:23.468Z,39.11
2023-02-27T03:52:45.712Z,39.13
2023-02-27T03:53:17.604Z,39.07
2023-02-27T03:53:47.600Z,39.08
2023-02-27T03:54:14.315Z,39.08
2023-02-27T03:54:40.357Z,39.03
2023-02-27T03:55:08.118Z,39.22
2023-02-27T03:55:35.918Z,39.31
2023-02-27T03:56:00.955Z,39.41
2023-02-27T03:56:28.282Z,39.35
2023-02-27T03:56:55.770Z,39.29
2023-02-27T03:57:17.422Z,39.46
2023-02-27T03:57:40.699Z,39.30
2023-02-27T03:58:02.498Z,39.59
2023-02-27T03:58:25.831Z,39.08
2023-02-27T03:58:47.732Z,39.20
2023-02-27T03:59:09.721Z,39.59
2023-02-27T03:59:37.623Z,39.29
2023-02-27T04:00:01.942Z,39.40
2023-02-27T04:00:27.443Z,39.59
2023-02-27T04:00:49.366Z,39.53
2023-02-27T04:01:11.714Z,39.36
2023-02-27T04:01:35.411Z,39.61
2023-02-27T04:01:58.874Z,39.59
2023-02-27T04:02:21.237Z,39.21
2023-02-27T04:02:46.392Z,39.31
2023-02-27T04:03:11.838Z,39.38
2023-02-27T04:03:40.987Z,39.55
2023-02-27T04:04:10.442Z,39.44
2023-02-27T04:04:50.806Z,39.55
2023-02-27T04:05:31.532Z,39.66
2023-02-27T04:06:20.431Z,39.45
2023-02-27T04:07:05.380Z,39.54
2023-02-27T04:07:35.893Z,39.32
2023-02-27T04:08:14.188Z,39.84
2023-02-27T04:08:50.737Z,39.68
2023-02-27T04:09:23.957Z,39.70
2023-02-27T04:10:18.591Z,39.57
2023-02-27T04:11:02.582Z,39.61
2023-02-27T04:11:34.512Z,39.86
2023-02-27T04:12:20.973Z,39.63
2023-02-27T04:13:01.741Z,39.28
2023-02-27T04:13:38.900Z,39.37
2023-02-27T04:14:15.515Z,39.33
2023-02-27T04:14:46.631Z,39.33
2023-02-27T04:15:18.570Z,39.19
2023-02-27T04:15:53.029Z,39.52
2023-02-27T04:16:39.676Z,39.59
2023-02-27T04:17:19.034Z,39.45
2023-02-27T04:17:49.771Z,39.57
2023-02-27T04:18:24.997Z,39.68
2023-02-27T04:18:59.758Z,39.54
2023-02-27T04:19:36.895Z,39.45
2023-02-27T04:20:20.919Z,39.63
2023-02-27T04:20:46.624Z,39.41
2023-02-27T04:21:11.356Z,39.65
2023-02-27T04:21:38.337Z,39.78
2023-02-27T04:22:12.790Z,39.80
2023-02-27T04:22:39.950Z,39.45
2023-02-27T04:23:05.451Z,39.63
2023-02-27T04:23:37.971Z,39.66
2023-02-27T04:24:11.949Z,39.37
2023-02-27T04:24:39.441Z,39.67
2023-02-27T04:25:16.568Z,39.32
2023-02-27T04:25:54.793Z,39.29
2023-02-27T04:26:26.589Z,39.30
2023-02-27T04:26:54.740Z,39.13
2023-02-27T04:27:25.146Z,39.48
2023-02-27T04:27:52.768Z,39.57
2023-02-27T04:28:17.584Z,39.07
2023-02-27T04:28:43.833Z,39.46
2023-02-27T04:29:12.052Z,39.44
2023-02-27T04:29:44.429Z,39.44
2023-02-27T04:30:17.469Z,39.50
2023-02-27T04:30:46.807Z,39.49
2023-02-27T04:31:15.768Z,39.41
2023-02-27T04:31:45.680Z,39.29
2023-02-27T04:32:19.822Z,39.49
2023-02-27T04:32:45.136Z,39.40
2023-02-27T04:33:10.862Z,39.28
2023-02-27T04:33:45.930Z,39.31
2023-02-27T04:34:16.022Z,39.36
2023-02-27T04:34:42.368Z,39.78
2023-02-27T04:35:10.194Z,39.38
2023-02-27T04:35:35.991Z,39.59
2023-02-27T04:36:02.842Z,39.60
2023-02-27T04:36:31.083Z,39.41
2023-02-27T04:37:01.240Z,39.31
2023-02-27T04:37:28.796Z,39.27
2023-02-27T04:37:56.886Z,39.18
2023-02-27T04:38:22.932Z,39.25
2023-02-27T04:38:49.167Z,39.34
2023-02-27T04:39:18.063Z,39.57
2023-02-27T04:39:44.667Z,39.42
2023-02-27T04:40:10.294Z,39.61
2023-02-27T04:40:37.542Z,39.42
2023-02-27T04:41:03.896Z,39.27
2023-02-27T04:41:29.952Z,39.46
2023-02-27T04:41:54.894Z,39.33
2023-02-27T04:42:20.981Z,39.36
2023-02-27T04:42:47.285Z,39.51
2023-02-27T04:43:11.694Z,39.56
2023-02-27T04:43:37.427Z,39.55
2023-02-27T04:44:01.709Z,39.26
2023-02-27T04:44:26.980Z,39.51
2023-02-27T04:44:50.343Z,39.51
2023-02-27T04:45:16.813Z,39.21
2023-02-27T04:45:41.338Z,39.38
2023-02-27T04:46:07.534Z,39.27
2023-02-27T04:46:30.955Z,39.20
2023-02-27T04:46:55.172Z,39.17
2023-02-27T04:47:19.140Z,39.04
2023-02-27T04:47:47.739Z,39.25
2023-02-27T04:48:15.783Z,39.26
2023-02-27T04:48:41.430Z,38.89
2023-02-27T04:49:10.172Z,39.23
2023-02-27T04:49:37.829Z,39.32
2023-02-27T04:50:05.206Z,39.41
2023-02-27T04:50:30.511Z,39.25
2023-02-27T04:50:58.787Z,39.19
2023-02-27T04:51:25.850Z,39.09
2023-02-27T04:51:53.002Z,39.41
2023-02-27T04:52:20.725Z,39.13
2023-02-27T04:52:48.469Z,39.17
2023-02-27T04:53:16.005Z,39.13
2023-02-27T04:53:43.330Z,39.48
2023-02-27T04:54:12.570Z,39.39
2023-02-27T04:54:40.784Z,39.41
2023-02-27T04:55:08.366Z,39.13
2023-02-27T04:55:35.159Z,39.15
2023-02-27T04:56:02.423Z,39.24
2023-02-27T04:56:29.055Z,39.40
2023-02-27T04:56:53.882Z,39.13
2023-02-27T04:57:20.560Z,39.34
2023-02-27T04:57:48.402Z,39.55
2023-02-27T04:58:13.917Z,39.27
2023-02-27T04:58:39.557Z,39.60
2023-02-27T04:59:07.569Z,39.46
2023-02-27T04:59:33.685Z,39.37
2023-02-27T04:59:57.915Z,39.57
2023-02-27T05:00:23.310Z,39.46
2023-02-27T05:00:48.554Z,39.40
2023-02-27T05:01:18.244Z,39.46
2023-02-27T05:01:43.624Z,39.48
2023-02-27T05:02:12.112Z,39.46
2023-02-27T05:02:37.979Z,39.35
2023-02-27T05:03:07.061Z,39.48
2023-02-27T05:03:33.028Z,39.77
2023-02-27T05:03:58.361Z,39.80
2023-02-27T05:04:26.366Z,39.83
2023-02-27T05:04:49.943Z,39.40
2023-02-27T05:05:15.212Z,39.63
2023-02-27T05:05:41.159Z,39.79
2023-02-27T05:06:03.145Z,39.48
2023-02-27T05:06:29.404Z,39.90
2023-02-27T05:06:56.161Z,39.41
2023-02-27T05:07:22.099Z,39.56
2023-02-27T05:07:50.438Z,39.40
2023-02-27T05:08:22.419Z,39.64
2023-02-27T05:08:53.898Z,39.37
2023-02-27T05:09:22.543Z,39.41
2023-02-27T05:09:50.676Z,39.36
2023-02-27T05:10:16.370Z,39.58
2023-02-27T05:10:44.458Z,39.69
2023-02-27T05:11:12.570Z,39.73
2023-02-27T05:11:43.856Z,39.81
2023-02-27T05:12:11.221Z,39.68
2023-02-27T05:12:39.808Z,39.54
2023-02-27T05:13:09.690Z,39.75
2023-02-27T05:13:37.573Z,39.72
2023-02-27T05:14:04.773Z,39.88
2023-02-27T05:14:33.501Z,39.62
2023-02-27T05:15:01.280Z,39.64
2023-02-27T05:15:28.288Z,39.88
2023-02-27T05:15:55.672Z,40.00
2023-02-27T05:16:24.102Z,39.74
2023-02-27T05:16:50.341Z,39.99
2023-02-27T05:17:18.189Z,39.95
2023-02-27T05:17:47.554Z,39.77
2023-02-27T05:18:11.827Z,39.53
2023-02-27T05:18:33.799Z,39.83
2023-02-27T05:18:57.617Z,39.55
2023-02-27T05:19:20.764Z,39.62
2023-02-27T05:19:44.027Z,39.76
2023-02-27T05:20:07.363Z,40.00
2023-02-27T05:20:36.347Z,39.86
2023-02-27T05:21:06.738Z,39.98
2023-02-27T05:21:34.284Z,39.51
2023-02-27T05:22:01.898Z,39.60
2023-02-27T05:22:34.830Z,39.78
2023-02-27T05:23:02.238Z,39.63
2023-02-27T05:23:32.156Z,39.66
2023-02-27T05:24:06.405Z,40.13
2023-02-27T05:24:37.013Z,39.69
2023-02-27T05:25:07.037Z,39.87
2023-02-27T05:25:37.931Z,39.71
2023-02-27T05:26:06.905Z,39.78
2023-02-27T05:26:40.936Z,39.93
2023-02-27T05:27:16.737Z,39.56
2023-02-27T05:27:46.836Z,39.67
2023-02-27T05:28:14.845Z,39.68
2023-02-27T05:28:40.629Z,39.81
2023-02-27T05:29:09.199Z,39.69
2023-02-27T05:29:39.925Z,39.52
2023-02-27T05:30:09.185Z,39.89
2023-02-27T05:30:37.578Z,39.73
2023-02-27T05:31:05.050Z,39.68
2023-02-27T05:31:31.918Z,39.49
2023-02-27T05:31:57.391Z,39.64
2023-02-27T05:32:28.858Z,39.74
2023-02-27T05:32:56.464Z,39.89
2023-02-27T05:33:21.113Z,40.00
2023-02-27T05:33:50.050Z,39.69
2023-02-27T05:34:16.799Z,39.66
2023-02-27T05:34:44.517Z,39.97
2023-02-27T05:35:18.648Z,40.24
2023-02-27T05:35:48.688Z,40.18
2023-02-27T05:36:15.920Z,40.04
2023-02-27T05:36:43.722Z,40.13
2023-02-27T05:37:11.409Z,39.77
2023-02-27T05:37:37.228Z,39.92
2023-02-27T05:38:05.231Z,40.09
2023-02-27T05:38:32.322Z,40.13
2023-02-27T05:39:00.155Z,40.14
2023-02-27T05:39:26.983Z,40.17
2023-02-27T05:39:50.763Z,40.09
2023-02-27T05:40:17.892Z,40.04
2023-02-27T05:40:44.278Z,40.00
2023-02-27T05:41:10.503Z,40.29
2023-02-27T05:41:38.174Z,39.78
2023-02-27T05:42:06.051Z,40.18
2023-02-27T05:42:34.294Z,40.09
2023-02-27T05:43:01.415Z,40.18
2023-02-27T05:43:29.702Z,39.86
2023-02-27T05:43:57.025Z,39.79
2023-02-27T05:44:22.237Z,39.99
2023-02-27T05:44:55.269Z,39.99
2023-02-27T05:45:20.559Z,40.03
2023-02-27T05:45:45.983Z,39.91
2023-02-27T05:46:14.629Z,39.98
2023-02-27T05:46:39.130Z,39.97
2023-02-27T05:47:05.715Z,40.08
2023-02-27T05:47:32.284Z,39.94
2023-02-27T05:48:00.432Z,39.84
2023-02-27T05:48:26.967Z,39.76
2023-02-27T05:48:54.606Z,39.99
2023-02-27T05:49:19.158Z,39.90
2023-02-27T05:49:44.305Z,39.98
2023-02-27T05:50:10.057Z,40.17
2023-02-27T05:50:35.991Z,39.98
2023-02-27T05:50:59.225Z,39.88
2023-02-27T05:51:23.781Z,40.06
2023-02-27T05:51:50.365Z,40.12
2023-02-27T05:52:18.308Z,40.01
2023-02-27T05:52:41.311Z,39.86
2023-02-27T05:53:05.917Z,39.91
2023-02-27T05:53:33.401Z,39.70
2023-02-27T05:54:01.013Z,39.80
2023-02-27T05:54:30.094Z,39.72
2023-02-27T05:54:56.813Z,39.67
2023-02-27T05:55:23.921Z,40.18
2023-02-27T05:55:48.874Z,39.71
2023-02-27T05:56:15.959Z,39.60
2023-02-27T05:56:40.134Z,39.79
2023-02-27T05:57:08.690Z,39.76
2023-02-27T05:57:36.670Z,39.84
2023-02-27T05:58:05.948Z,39.82
2023-02-27T05:58:33.612Z,39.53
2023-02-27T05:59:00.458Z,39.55
2023-02-27T05:59:27.171Z,39.90
2023-02-27T05:59:55.353Z,39.93
2023-02-27T06:00:22.800Z,39.79
2023-02-27T06:00:49.227Z,39.60
2023-02-27T06:01:12.315Z,39.72
2023-02-27T06:01:35.093Z,40.07
2023-02-27T06:01:56.804Z,39.90
2023-02-27T06:02:18.502Z,39.86
2023-02-27T06:02:42.535Z,39.63
2023-02-27T06:03:06.830Z,39.75
2023-02-27T06:03:31.210Z,39.78
2023-02-27T06:03:54.049Z,39.74
2023-02-27T06:04:15.755Z,39.69
2023-02-27T06:04:38.400Z,40.07
2023-02-27T06:05:00.105Z,40.04
2023-02-27T06:05:23.923Z,39.67
2023-02-27T06:05:46.045Z,39.54
2023-02-27T06:06:13.430Z,39.58
2023-02-27T06:06:35.814Z,39.61
2023-02-27T06:06:57.914Z,39.95
2023-02-27T06:07:19.549Z,39.99
2023-02-27T06:07:43.601Z,39.71
2023-02-27T06:08:06.219Z,39.74
2023-02-27T06:08:28.684Z,40.12
2023-02-27T06:08:50.433Z,39.87
2023-02-27T06:09:12.062Z,39.92
2023-02-27T06:09:35.308Z,40.10
2023-02-27T06:09:56.991Z,39.75
2023-02-27T06:10:20.345Z,40.00
2023-02-27T06:10:41.973Z,39.84
2023-02-27T06:11:04.677Z,39.99
2023-02-27T06:11:26.460Z,40.03
2023-02-27T06:11:49.455Z,40.08
2023-02-27T06:12:12.917Z,39.63
2023-02-27T06:12:35.678Z,39.84
2023-02-27T06:12:57.271Z,39.63
2023-02-27T06:13:19.029Z,39.67
2023-02-27T06:13:42.066Z,39.63
2023-02-27T06:14:08.106Z,40.16
2023-02-27T06:14:29.756Z,39.89
2023-02-27T06:14:51.738Z,39.97
2023-02-27T06:15:13.536Z,39.61
2023-02-27T06:15:36.382Z,39.92
2023-02-27T06:15:58.117Z,39.99
2023-02-27T06:16:19.982Z,39.81
2023-02-27T06:16:41.684Z,39.81
2023-02-27T06:17:03.416Z,39.81
2023-02-27T06:17:26.108Z,39.69
2023-02-27T06:17:47.942Z,39.94
2023-02-27T06:18:10.480Z,39.75
2023-02-27T06:18:32.105Z,39.66
2023-02-27T06:18:55.455Z,39.69
2023-02-27T06:19:17.330Z,39.35
2023-02-27T06:19:38.972Z,39.44
2023-02-27T06:20:00.637Z,39.75
2023-02-27T06:20:23.333Z,39.45
2023-02-27T06:20:45.703Z,39.41
2023-02-27T06:21:07.376Z,39.79
2023-02-27T06:21:29.279Z,39.71
2023-02-27T06:21:51.819Z,39.77
2023-02-27T06:22:13.438Z,39.63
2023-02-27T06:22:35.229Z,39.89
2023-02-27T06:22:56.838Z,39.44
2023-02-27T06:23:19.469Z,39.81
2023-02-27T06:23:41.075Z,39.65
2023-02-27T06:24:03.123Z,39.72
2023-02-27T06:24:26.424Z,39.63
2023-02-27T06:24:49.057Z,39.52
2023-02-27T06:25:10.853Z,39.85
2023-02-27T06:25:32.981Z,39.66
2023-02-27T06:25:54.689Z,39.65
2023-02-27T06:26:17.841Z,39.28
2023-02-27T06:26:39.477Z,39.62
2023-02-27T06:27:01.093Z,39.25
2023-02-27T06:27:24.212Z,39.33
2023-02-27T06:27:46.784Z,39.40
2023-02-27T06:28:09.267Z,39.51
2023-02-27T06:28:31.075Z,39.31
2023-02-27T06:28:52.772Z,39.53
2023-02-27T06:29:15.360Z,39.39
2023-02-27T06:29:37.022Z,39.51
2023-02-27T06:29:58.767Z,39.25
2023-02-27T06:30:20.566Z,39.56
2023-02-27T06:30:45.332Z,39.35
2023-02-27T06:31:08.480Z,39.43
2023-02-27T06:31:30.287Z,39.42
2023-02-27T06:31:52.007Z,39.47
2023-02-27T06:32:14.923Z,39.20
2023-02-27T06:32:36.598Z,39.64
2023-02-27T06:32:58.322Z,39.66
2023-02-27T06:33:21.364Z,39.62
2023-02-27T06:33:43.462Z,39.14
2023-02-27T06:34:05.079Z,39.43
2023-02-27T06:34:26.755Z,39.18
2023-02-27T06:34:49.354Z,39.40
2023-02-27T06:35:11.371Z,39.70
2023-02-27T06:35:33.154Z,39.87
2023-02-27T06:35:54.822Z,39.54
2023-02-27T06:36:17.618Z,39.64
2023-02-27T06:36:40.023Z,39.53
2023-02-27T06:37:04.152Z,39.60
2023-02-27T06:37:25.957Z,39.31
2023-02-27T06:37:48.629Z,39.21
2023-02-27T06:38:10.647Z,39.20
2023-02-27T06:38:32.272Z,39.16
2023-02-27T06:38:56.230Z,39.30
2023-02-27T06:39:19.174Z,39.27
2023-02-27T06:39:40.978Z,39.36
2023-02-27T06:40:05.873Z,39.63
2023-02-27T06:40:28.477Z,39.49
2023-02-27T06:40:52.878Z,39.80
2023-02-27T06:41:14.575Z,39.52
2023-02-27T06:41:36.164Z,39.61
2023-02-27T06:41:58.756Z,39.44
2023-02-27T06:42:20.924Z,39.33
2023-02-27T06:42:45.299Z,39.66
2023-02-27T06:43:07.935Z,39.39
2023-02-27T06:43:30.110Z,39.47
2023-02-27T06:43:51.988Z,39.39
2023-02-27T06:44:18.522Z,39.49
2023-02-27T06:44:42.431Z,39.42
2023-02-27T06:45:05.783Z,39.42
2023-02-27T06:45:29.466Z,39.40
2023-02-27T06:45:54.130Z,39.23
2023-02-27T06:46:15.876Z,39.23
2023-02-27T06:46:38.814Z,39.00
2023-02-27T06:47:01.223Z,38.97
2023-02-27T06:47:22.875Z,39.07
2023-02-27T06:47:46.755Z,38.89
2023-02-27T06:48:10.212Z,39.19
2023-02-27T06:48:32.673Z,39.35
2023-02-27T06:48:54.247Z,39.25
2023-02-27T06:49:15.922Z,39.20
2023-02-27T06:49:38.497Z,38.96
2023-02-27T06:50:00.213Z,39.07
2023-02-27T06:50:21.909Z,38.82
2023-02-27T06:50:43.532Z,39.06
2023-02-27T06:51:06.950Z,39.03
2023-02-27T06:51:28.529Z,38.99
2023-02-27T06:51:50.162Z,39.14
2023-02-27T06:52:12.774Z,39.22
2023-02-27T06:52:34.397Z,39.14
2023-02-27T06:52:56.105Z,39.09
2023-02-27T06:53:17.715Z,39.40
2023-02-27T06:53:40.314Z,39.27
2023-02-27T06:54:01.921Z,39.17
2023-02-27T06:54:23.790Z,38.85
2023-02-27T06:54:46.324Z,38.78
2023-02-27T06:55:09.785Z,38.72
2023-02-27T06:55:31.454Z,38.81
2023-02-27T06:55:53.128Z,39.00
2023-02-27T06:56:15.651Z,39.13
2023-02-27T06:56:37.514Z,39.42
2023-02-27T06:56:59.399Z,39.09
2023-02-27T06:57:21.031Z,38.87
2023-02-27T06:57:44.983Z,39.05
2023-02-27T06:58:06.616Z,38.98